Frenchglen, Oregon
Current Conditions -  °F | °C
As of 8:53 AM on Friday 31 Oct 2014 (Local Time) from KBNO Reporting Station
Overcast Overcast  
Wind Chill: 46°   Ceiling: 6500
Heat Index: 49°   Visibility: 10mi
Dew Point: 35°   Wind: 7mph
Humidity: 59%   Direction: 310°NW
Pressure: 29.83"   Gusts: NA
Location:  42.83°N, 118.92°W
Report Text: KBNO 311553Z AUTO 31006KT 10SM OVC065 09/02 A2983 RMK AO2 RAB19E38 SLP091 P0000 T00940017
Loading
Personal Weather Stations






























Interactive Weather Map
Tropical Storm Tracking
New forecast layout! Learn more

10-Day Weather Forecast

Advertisements
Track Severe Weather on mobile